sensor_id;sensor_type;location;lat;lon;timestamp;P1;durP1;ratioP1;P2;durP2;ratioP2
39448;SDS011;25151;45.566;9.382;2024-01-07T00:00:15;4.55;;;3.90;;
39448;SDS011;25151;45.566;9.382;2024-01-07T00:02:42;5.88;;;4.00;;
39448;SDS011;25151;45.566;9.382;2024-01-07T00:05:09;5.28;;;3.97;;
39448;SDS011;25151;45.566;9.382;2024-01-07T00:07:36;5.78;;;4.28;;
39448;SDS011;25151;45.566;9.382;2024-01-07T00:10:03;5.15;;;3.78;;
39448;SDS011;25151;45.566;9.382;2024-01-07T00:12:30;5.53;;;3.90;;
39448;SDS011;25151;45.566;9.382;2024-01-07T00:14:57;5.82;;;3.88;;
39448;SDS011;25151;45.566;9.382;2024-01-07T00:17:24;5.55;;;4.00;;
39448;SDS011;25151;45.566;9.382;2024-01-07T00:19:51;4.47;;;3.55;;
39448;SDS011;25151;45.566;9.382;2024-01-07T00:22:18;5.13;;;4.13;;
39448;SDS011;25151;45.566;9.382;2024-01-07T00:24:45;4.97;;;3.95;;
39448;SDS011;25151;45.566;9.382;2024-01-07T00:27:12;5.65;;;4.03;;
39448;SDS011;25151;45.566;9.382;2024-01-07T00:29:39;5.80;;;4.25;;
39448;SDS011;25151;45.566;9.382;2024-01-07T00:32:06;5.65;;;3.75;;
39448;SDS011;25151;45.566;9.382;2024-01-07T00:34:33;7.18;;;4.32;;
39448;SDS011;25151;45.566;9.382;2024-01-07T00:37:00;7.43;;;3.78;;
39448;SDS011;25151;45.566;9.382;2024-01-07T00:39:26;4.53;;;3.45;;
39448;SDS011;25151;45.566;9.382;2024-01-07T00:41:53;4.65;;;3.70;;
39448;SDS011;25151;45.566;9.382;2024-01-07T00:44:20;4.75;;;3.97;;
39448;SDS011;25151;45.566;9.382;2024-01-07T00:46:47;6.13;;;4.57;;
39448;SDS011;25151;45.566;9.382;2024-01-07T00:49:15;4.30;;;3.90;;
39448;SDS011;25151;45.566;9.382;2024-01-07T00:51:42;6.20;;;4.35;;
39448;SDS011;25151;45.566;9.382;2024-01-07T00:54:09;5.88;;;4.18;;
39448;SDS011;25151;45.566;9.382;2024-01-07T00:56:36;5.05;;;4.22;;
39448;SDS011;25151;45.566;9.382;2024-01-07T00:59:04;5.25;;;4.30;;
39448;SDS011;25151;45.566;9.382;2024-01-07T01:01:31;5.68;;;4.40;;
39448;SDS011;25151;45.566;9.382;2024-01-07T01:03:58;4.63;;;4.07;;
39448;SDS011;25151;45.566;9.382;2024-01-07T01:06:25;6.03;;;3.65;;
39448;SDS011;25151;45.566;9.382;2024-01-07T01:08:52;4.72;;;4.22;;
39448;SDS011;25151;45.566;9.382;2024-01-07T01:11:19;5.68;;;4.43;;
39448;SDS011;25151;45.566;9.382;2024-01-07T01:13:46;5.72;;;4.70;;
39448;SDS011;25151;45.566;9.382;2024-01-07T01:16:13;4.57;;;3.97;;
39448;SDS011;25151;45.566;9.382;2024-01-07T01:18:41;5.65;;;4.13;;
39448;SDS011;25151;45.566;9.382;2024-01-07T01:21:09;6.40;;;4.63;;
39448;SDS011;25151;45.566;9.382;2024-01-07T01:23:36;5.63;;;4.80;;
39448;SDS011;25151;45.566;9.382;2024-01-07T01:26:03;6.53;;;3.92;;
39448;SDS011;25151;45.566;9.382;2024-01-07T01:28:30;5.03;;;4.45;;
39448;SDS011;25151;45.566;9.382;2024-01-07T01:30:56;5.22;;;4.25;;
39448;SDS011;25151;45.566;9.382;2024-01-07T01:33:23;4.95;;;4.32;;
39448;SDS011;25151;45.566;9.382;2024-01-07T01:35:50;4.53;;;4.07;;
39448;SDS011;25151;45.566;9.382;2024-01-07T01:38:17;5.60;;;4.53;;
39448;SDS011;25151;45.566;9.382;2024-01-07T01:40:50;5.00;;;4.13;;
39448;SDS011;25151;45.566;9.382;2024-01-07T01:43:28;5.10;;;4.47;;
39448;SDS011;25151;45.566;9.382;2024-01-07T01:45:55;6.63;;;4.43;;
39448;SDS011;25151;45.566;9.382;2024-01-07T01:48:22;5.10;;;4.53;;
39448;SDS011;25151;45.566;9.382;2024-01-07T01:50:49;5.50;;;4.78;;
39448;SDS011;25151;45.566;9.382;2024-01-07T01:53:17;7.88;;;4.80;;
39448;SDS011;25151;45.566;9.382;2024-01-07T01:55:44;4.72;;;4.18;;
39448;SDS011;25151;45.566;9.382;2024-01-07T01:58:11;6.35;;;4.28;;
39448;SDS011;25151;45.566;9.382;2024-01-07T02:00:40;6.95;;;5.15;;
39448;SDS011;25151;45.566;9.382;2024-01-07T02:03:07;5.05;;;4.20;;
39448;SDS011;25151;45.566;9.382;2024-01-07T02:05:34;4.97;;;4.45;;
39448;SDS011;25151;45.566;9.382;2024-01-07T02:08:01;5.93;;;3.83;;
39448;SDS011;25151;45.566;9.382;2024-01-07T02:10:28;5.32;;;4.60;;
39448;SDS011;25151;45.566;9.382;2024-01-07T02:13:00;7.90;;;4.45;;
39448;SDS011;25151;45.566;9.382;2024-01-07T02:15:27;5.18;;;4.10;;
39448;SDS011;25151;45.566;9.382;2024-01-07T02:17:54;5.68;;;4.32;;
39448;SDS011;25151;45.566;9.382;2024-01-07T02:20:20;6.32;;;4.55;;
39448;SDS011;25151;45.566;9.382;2024-01-07T02:22:47;6.13;;;4.70;;
39448;SDS011;25151;45.566;9.382;2024-01-07T02:25:15;5.65;;;4.35;;
39448;SDS011;25151;45.566;9.382;2024-01-07T02:27:42;5.40;;;4.85;;
39448;SDS011;25151;45.566;9.382;2024-01-07T02:30:09;4.28;;;3.67;;
39448;SDS011;25151;45.566;9.382;2024-01-07T02:32:36;5.90;;;4.20;;
39448;SDS011;25151;45.566;9.382;2024-01-07T02:35:04;5.30;;;4.57;;
39448;SDS011;25151;45.566;9.382;2024-01-07T02:37:31;4.68;;;3.95;;
39448;SDS011;25151;45.566;9.382;2024-01-07T02:39:58;5.80;;;4.47;;
39448;SDS011;25151;45.566;9.382;2024-01-07T02:42:25;5.30;;;4.43;;
39448;SDS011;25151;45.566;9.382;2024-01-07T02:44:51;5.15;;;4.53;;
39448;SDS011;25151;45.566;9.382;2024-01-07T02:47:18;4.68;;;4.18;;
39448;SDS011;25151;45.566;9.382;2024-01-07T02:49:45;4.30;;;3.85;;
39448;SDS011;25151;45.566;9.382;2024-01-07T02:52:12;5.38;;;4.35;;
39448;SDS011;25151;45.566;9.382;2024-01-07T02:54:39;8.48;;;5.03;;
39448;SDS011;25151;45.566;9.382;2024-01-07T02:57:06;5.75;;;4.97;;
39448;SDS011;25151;45.566;9.382;2024-01-07T02:59:33;6.70;;;5.18;;
39448;SDS011;25151;45.566;9.382;2024-01-07T03:02:00;5.53;;;4.90;;
39448;SDS011;25151;45.566;9.382;2024-01-07T03:04:27;5.13;;;4.40;;
39448;SDS011;25151;45.566;9.382;2024-01-07T03:06:54;4.88;;;4.30;;
39448;SDS011;25151;45.566;9.382;2024-01-07T03:09:21;4.90;;;4.40;;
39448;SDS011;25151;45.566;9.382;2024-01-07T03:11:48;5.85;;;5.25;;
39448;SDS011;25151;45.566;9.382;2024-01-07T03:14:16;5.03;;;4.40;;
39448;SDS011;25151;45.566;9.382;2024-01-07T03:16:45;4.85;;;4.20;;
39448;SDS011;25151;45.566;9.382;2024-01-07T03:19:12;5.55;;;4.50;;
39448;SDS011;25151;45.566;9.382;2024-01-07T03:21:39;5.35;;;4.70;;
39448;SDS011;25151;45.566;9.382;2024-01-07T03:24:06;5.60;;;4.47;;
39448;SDS011;25151;45.566;9.382;2024-01-07T03:26:33;5.85;;;4.57;;
39448;SDS011;25151;45.566;9.382;2024-01-07T03:29:01;9.82;;;4.93;;
39448;SDS011;25151;45.566;9.382;2024-01-07T03:31:28;6.18;;;4.90;;
39448;SDS011;25151;45.566;9.382;2024-01-07T03:33:55;5.68;;;4.90;;
39448;SDS011;25151;45.566;9.382;2024-01-07T03:36:23;5.45;;;4.78;;
39448;SDS011;25151;45.566;9.382;2024-01-07T03:38:50;5.88;;;4.88;;
39448;SDS011;25151;45.566;9.382;2024-01-07T03:41:19;5.72;;;4.90;;
39448;SDS011;25151;45.566;9.382;2024-01-07T03:43:47;5.25;;;4.70;;
39448;SDS011;25151;45.566;9.382;2024-01-07T03:46:15;5.57;;;4.60;;
39448;SDS011;25151;45.566;9.382;2024-01-07T03:48:42;5.95;;;4.95;;
39448;SDS011;25151;45.566;9.382;2024-01-07T03:51:10;5.28;;;4.43;;
39448;SDS011;25151;45.566;9.382;2024-01-07T03:53:37;5.93;;;4.18;;
39448;SDS011;25151;45.566;9.382;2024-01-07T03:56:04;6.22;;;4.72;;
39448;SDS011;25151;45.566;9.382;2024-01-07T03:58:31;5.50;;;4.80;;
39448;SDS011;25151;45.566;9.382;2024-01-07T04:01:00;5.32;;;4.28;;
39448;SDS011;25151;45.566;9.382;2024-01-07T04:03:27;5.07;;;4.57;;
39448;SDS011;25151;45.566;9.382;2024-01-07T04:05:54;5.97;;;4.82;;
39448;SDS011;25151;45.566;9.382;2024-01-07T04:08:21;6.25;;;5.03;;
39448;SDS011;25151;45.566;9.382;2024-01-07T04:10:48;5.38;;;4.82;;
39448;SDS011;25151;45.566;9.382;2024-01-07T04:13:15;6.68;;;5.10;;
39448;SDS011;25151;45.566;9.382;2024-01-07T04:15:43;4.90;;;4.40;;
39448;SDS011;25151;45.566;9.382;2024-01-07T04:18:10;6.20;;;4.90;;
39448;SDS011;25151;45.566;9.382;2024-01-07T04:20:38;4.93;;;4.40;;
39448;SDS011;25151;45.566;9.382;2024-01-07T04:23:05;5.78;;;4.93;;
39448;SDS011;25151;45.566;9.382;2024-01-07T04:25:32;4.72;;;4.18;;
39448;SDS011;25151;45.566;9.382;2024-01-07T04:28:00;4.70;;;4.20;;
39448;SDS011;25151;45.566;9.382;2024-01-07T04:30:27;4.95;;;4.40;;
39448;SDS011;25151;45.566;9.382;2024-01-07T04:32:54;5.35;;;4.85;;
39448;SDS011;25151;45.566;9.382;2024-01-07T04:35:22;5.28;;;4.47;;
39448;SDS011;25151;45.566;9.382;2024-01-07T04:37:50;5.90;;;4.65;;
39448;SDS011;25151;45.566;9.382;2024-01-07T04:40:17;6.20;;;4.82;;
39448;SDS011;25151;45.566;9.382;2024-01-07T04:42:44;5.22;;;4.35;;
39448;SDS011;25151;45.566;9.382;2024-01-07T04:45:11;6.15;;;4.85;;
39448;SDS011;25151;45.566;9.382;2024-01-07T04:47:38;6.57;;;4.45;;
39448;SDS011;25151;45.566;9.382;2024-01-07T04:50:07;5.30;;;4.80;;
39448;SDS011;25151;45.566;9.382;2024-01-07T04:52:34;6.13;;;5.10;;
39448;SDS011;25151;45.566;9.382;2024-01-07T04:55:02;5.53;;;4.72;;
39448;SDS011;25151;45.566;9.382;2024-01-07T04:57:29;5.30;;;4.80;;
39448;SDS011;25151;45.566;9.382;2024-01-07T04:59:55;5.25;;;4.25;;
39448;SDS011;25151;45.566;9.382;2024-01-07T05:02:22;7.40;;;4.47;;
39448;SDS011;25151;45.566;9.382;2024-01-07T05:04:50;6.07;;;5.05;;
39448;SDS011;25151;45.566;9.382;2024-01-07T05:07:17;5.45;;;4.80;;
39448;SDS011;25151;45.566;9.382;2024-01-07T05:09:44;5.93;;;5.03;;
39448;SDS011;25151;45.566;9.382;2024-01-07T05:12:11;5.47;;;4.93;;
39448;SDS011;25151;45.566;9.382;2024-01-07T05:14:38;5.68;;;5.15;;
39448;SDS011;25151;45.566;9.382;2024-01-07T05:17:08;6.32;;;4.90;;
39448;SDS011;25151;45.566;9.382;2024-01-07T05:19:35;6.65;;;5.45;;
39448;SDS011;25151;45.566;9.382;2024-01-07T05:22:03;5.38;;;4.53;;
39448;SDS011;25151;45.566;9.382;2024-01-07T05:24:30;5.35;;;4.72;;
39448;SDS011;25151;45.566;9.382;2024-01-07T05:26:57;7.22;;;6.00;;
39448;SDS011;25151;45.566;9.382;2024-01-07T05:29:25;7.07;;;4.70;;
39448;SDS011;25151;45.566;9.382;2024-01-07T05:31:51;5.22;;;4.68;;
39448;SDS011;25151;45.566;9.382;2024-01-07T05:34:19;6.13;;;4.90;;
39448;SDS011;25151;45.566;9.382;2024-01-07T05:36:45;5.45;;;4.90;;
39448;SDS011;25151;45.566;9.382;2024-01-07T05:39:13;5.30;;;4.65;;
39448;SDS011;25151;45.566;9.382;2024-01-07T05:41:40;6.35;;;4.78;;
39448;SDS011;25151;45.566;9.382;2024-01-07T05:44:07;5.53;;;4.80;;
39448;SDS011;25151;45.566;9.382;2024-01-07T05:46:38;8.35;;;5.00;;
39448;SDS011;25151;45.566;9.382;2024-01-07T05:49:05;5.22;;;4.70;;
39448;SDS011;25151;45.566;9.382;2024-01-07T05:51:32;4.97;;;4.35;;
39448;SDS011;25151;45.566;9.382;2024-01-07T05:53:59;6.22;;;5.03;;
39448;SDS011;25151;45.566;9.382;2024-01-07T05:56:26;6.03;;;5.40;;
39448;SDS011;25151;45.566;9.382;2024-01-07T05:58:53;6.20;;;5.05;;
39448;SDS011;25151;45.566;9.382;2024-01-07T06:01:21;6.13;;;4.95;;
39448;SDS011;25151;45.566;9.382;2024-01-07T06:03:48;6.20;;;5.07;;
39448;SDS011;25151;45.566;9.382;2024-01-07T06:06:15;6.15;;;5.20;;
39448;SDS011;25151;45.566;9.382;2024-01-07T06:08:43;5.93;;;4.93;;
39448;SDS011;25151;45.566;9.382;2024-01-07T06:11:10;6.63;;;5.18;;
39448;SDS011;25151;45.566;9.382;2024-01-07T06:13:40;7.95;;;5.75;;
39448;SDS011;25151;45.566;9.382;2024-01-07T06:16:07;7.00;;;5.57;;
39448;SDS011;25151;45.566;9.382;2024-01-07T06:18:35;4.85;;;4.35;;
39448;SDS011;25151;45.566;9.382;2024-01-07T06:21:02;5.25;;;4.22;;
39448;SDS011;25151;45.566;9.382;2024-01-07T06:23:29;6.07;;;5.30;;
39448;SDS011;25151;45.566;9.382;2024-01-07T06:25:58;6.20;;;4.45;;
39448;SDS011;25151;45.566;9.382;2024-01-07T06:28:25;5.88;;;4.88;;
39448;SDS011;25151;45.566;9.382;2024-01-07T06:30:53;8.68;;;5.15;;
39448;SDS011;25151;45.566;9.382;2024-01-07T06:33:20;6.45;;;4.97;;
39448;SDS011;25151;45.566;9.382;2024-01-07T06:35:47;6.38;;;5.20;;
39448;SDS011;25151;45.566;9.382;2024-01-07T06:38:14;6.50;;;5.28;;
39448;SDS011;25151;45.566;9.382;2024-01-07T06:40:41;6.07;;;4.82;;
39448;SDS011;25151;45.566;9.382;2024-01-07T06:43:08;6.25;;;5.30;;
39448;SDS011;25151;45.566;9.382;2024-01-07T06:45:36;7.22;;;5.35;;
39448;SDS011;25151;45.566;9.382;2024-01-07T06:48:02;5.82;;;5.00;;
39448;SDS011;25151;45.566;9.382;2024-01-07T06:50:30;5.53;;;4.93;;
39448;SDS011;25151;45.566;9.382;2024-01-07T06:52:57;6.10;;;4.93;;
39448;SDS011;25151;45.566;9.382;2024-01-07T06:55:24;7.60;;;5.10;;
39448;SDS011;25151;45.566;9.382;2024-01-07T06:57:51;6.97;;;5.20;;
39448;SDS011;25151;45.566;9.382;2024-01-07T07:00:18;5.55;;;4.75;;
39448;SDS011;25151;45.566;9.382;2024-01-07T07:02:45;6.10;;;4.75;;
39448;SDS011;25151;45.566;9.382;2024-01-07T07:05:13;5.43;;;4.90;;
39448;SDS011;25151;45.566;9.382;2024-01-07T07:07:40;5.30;;;4.50;;
39448;SDS011;25151;45.566;9.382;2024-01-07T07:10:07;5.25;;;4.50;;
39448;SDS011;25151;45.566;9.382;2024-01-07T07:12:34;7.47;;;5.15;;
39448;SDS011;25151;45.566;9.382;2024-01-07T07:15:02;6.85;;;5.32;;
39448;SDS011;25151;45.566;9.382;2024-01-07T07:17:29;5.55;;;4.80;;
39448;SDS011;25151;45.566;9.382;2024-01-07T07:19:56;6.18;;;5.25;;
39448;SDS011;25151;45.566;9.382;2024-01-07T07:22:24;6.97;;;5.35;;
39448;SDS011;25151;45.566;9.382;2024-01-07T07:24:49;5.00;;;4.25;;
39448;SDS011;25151;45.566;9.382;2024-01-07T07:27:15;6.75;;;5.70;;
39448;SDS011;25151;45.566;9.382;2024-01-07T07:29:41;5.68;;;4.95;;
39448;SDS011;25151;45.566;9.382;2024-01-07T07:32:07;7.30;;;5.25;;
39448;SDS011;25151;45.566;9.382;2024-01-07T07:34:32;5.25;;;4.75;;
39448;SDS011;25151;45.566;9.382;2024-01-07T07:36:58;6.57;;;4.88;;
39448;SDS011;25151;45.566;9.382;2024-01-07T07:39:25;7.65;;;5.38;;
39448;SDS011;25151;45.566;9.382;2024-01-07T07:41:53;5.72;;;4.93;;
39448;SDS011;25151;45.566;9.382;2024-01-07T07:44:20;6.00;;;5.35;;
39448;SDS011;25151;45.566;9.382;2024-01-07T07:46:46;7.10;;;4.85;;
39448;SDS011;25151;45.566;9.382;2024-01-07T07:49:13;6.47;;;5.30;;
39448;SDS011;25151;45.566;9.382;2024-01-07T07:51:40;6.32;;;5.35;;
39448;SDS011;25151;45.566;9.382;2024-01-07T07:54:08;6.40;;;5.50;;
39448;SDS011;25151;45.566;9.382;2024-01-07T07:56:35;7.93;;;5.47;;
39448;SDS011;25151;45.566;9.382;2024-01-07T07:59:03;6.30;;;5.13;;
39448;SDS011;25151;45.566;9.382;2024-01-07T08:01:30;6.57;;;5.38;;
39448;SDS011;25151;45.566;9.382;2024-01-07T08:03:59;6.10;;;5.28;;
39448;SDS011;25151;45.566;9.382;2024-01-07T08:06:28;5.93;;;4.90;;
39448;SDS011;25151;45.566;9.382;2024-01-07T08:08:54;6.28;;;4.90;;
39448;SDS011;25151;45.566;9.382;2024-01-07T08:11:21;6.38;;;5.20;;
39448;SDS011;25151;45.566;9.382;2024-01-07T08:13:49;6.10;;;5.07;;
39448;SDS011;25151;45.566;9.382;2024-01-07T08:16:16;6.70;;;5.05;;
39448;SDS011;25151;45.566;9.382;2024-01-07T08:18:44;5.43;;;4.57;;
39448;SDS011;25151;45.566;9.382;2024-01-07T08:21:15;5.78;;;5.07;;
39448;SDS011;25151;45.566;9.382;2024-01-07T08:23:43;7.45;;;5.53;;
39448;SDS011;25151;45.566;9.382;2024-01-07T08:26:10;5.25;;;4.45;;
39448;SDS011;25151;45.566;9.382;2024-01-07T08:28:37;7.25;;;5.07;;
39448;SDS011;25151;45.566;9.382;2024-01-07T08:31:05;7.00;;;5.18;;
39448;SDS011;25151;45.566;9.382;2024-01-07T08:33:41;6.85;;;5.50;;
39448;SDS011;25151;45.566;9.382;2024-01-07T08:36:11;5.25;;;4.75;;
39448;SDS011;25151;45.566;9.382;2024-01-07T08:38:37;6.10;;;4.03;;
39448;SDS011;25151;45.566;9.382;2024-01-07T08:41:05;6.55;;;5.30;;
39448;SDS011;25151;45.566;9.382;2024-01-07T08:43:34;8.23;;;4.80;;
39448;SDS011;25151;45.566;9.382;2024-01-07T08:46:03;8.07;;;5.32;;
39448;SDS011;25151;45.566;9.382;2024-01-07T08:48:30;15.23;;;5.35;;
39448;SDS011;25151;45.566;9.382;2024-01-07T08:50:57;8.02;;;4.93;;
39448;SDS011;25151;45.566;9.382;2024-01-07T08:53:25;5.93;;;4.95;;
39448;SDS011;25151;45.566;9.382;2024-01-07T08:55:53;7.93;;;5.40;;
39448;SDS011;25151;45.566;9.382;2024-01-07T08:58:21;8.93;;;5.43;;
39448;SDS011;25151;45.566;9.382;2024-01-07T09:00:49;7.43;;;5.32;;
39448;SDS011;25151;45.566;9.382;2024-01-07T09:03:16;6.50;;;5.55;;
39448;SDS011;25151;45.566;9.382;2024-01-07T09:05:44;8.35;;;4.93;;
39448;SDS011;25151;45.566;9.382;2024-01-07T09:08:11;8.80;;;4.88;;
39448;SDS011;25151;45.566;9.382;2024-01-07T09:10:40;6.20;;;5.43;;
39448;SDS011;25151;45.566;9.382;2024-01-07T09:13:06;6.15;;;5.00;;
39448;SDS011;25151;45.566;9.382;2024-01-07T09:15:33;7.07;;;5.47;;
39448;SDS011;25151;45.566;9.382;2024-01-07T09:18:00;6.85;;;5.55;;
39448;SDS011;25151;45.566;9.382;2024-01-07T09:20:27;6.45;;;4.78;;
39448;SDS011;25151;45.566;9.382;2024-01-07T09:22:54;7.45;;;5.72;;
39448;SDS011;25151;45.566;9.382;2024-01-07T09:25:21;6.82;;;4.65;;
39448;SDS011;25151;45.566;9.382;2024-01-07T09:27:48;9.93;;;5.68;;
39448;SDS011;25151;45.566;9.382;2024-01-07T09:30:16;7.13;;;5.53;;
39448;SDS011;25151;45.566;9.382;2024-01-07T09:32:43;8.13;;;5.15;;
39448;SDS011;25151;45.566;9.382;2024-01-07T09:35:10;6.10;;;5.50;;
39448;SDS011;25151;45.566;9.382;2024-01-07T09:37:38;5.63;;;4.75;;
39448;SDS011;25151;45.566;9.382;2024-01-07T09:40:05;7.30;;;5.22;;
39448;SDS011;25151;45.566;9.382;2024-01-07T09:42:36;6.57;;;5.50;;
39448;SDS011;25151;45.566;9.382;2024-01-07T09:45:05;5.93;;;4.88;;
39448;SDS011;25151;45.566;9.382;2024-01-07T09:47:33;6.15;;;4.32;;
39448;SDS011;25151;45.566;9.382;2024-01-07T09:50:02;7.55;;;5.30;;
39448;SDS011;25151;45.566;9.382;2024-01-07T09:52:32;5.40;;;4.78;;
39448;SDS011;25151;45.566;9.382;2024-01-07T09:55:00;7.35;;;4.80;;
39448;SDS011;25151;45.566;9.382;2024-01-07T09:57:31;5.05;;;4.43;;
39448;SDS011;25151;45.566;9.382;2024-01-07T09:59:59;5.82;;;5.10;;
39448;SDS011;25151;45.566;9.382;2024-01-07T10:02:26;8.75;;;4.93;;
39448;SDS011;25151;45.566;9.382;2024-01-07T10:04:54;5.20;;;4.60;;
39448;SDS011;25151;45.566;9.382;2024-01-07T10:07:21;6.57;;;4.72;;
39448;SDS011;25151;45.566;9.382;2024-01-07T10:09:50;7.07;;;4.80;;
39448;SDS011;25151;45.566;9.382;2024-01-07T10:12:22;6.40;;;4.80;;
39448;SDS011;25151;45.566;9.382;2024-01-07T10:14:49;5.82;;;4.22;;
39448;SDS011;25151;45.566;9.382;2024-01-07T10:17:16;5.03;;;4.22;;
39448;SDS011;25151;45.566;9.382;2024-01-07T10:19:44;5.80;;;4.47;;
39448;SDS011;25151;45.566;9.382;2024-01-07T10:22:14;6.07;;;4.70;;
39448;SDS011;25151;45.566;9.382;2024-01-07T10:24:41;6.60;;;4.20;;
39448;SDS011;25151;45.566;9.382;2024-01-07T10:27:11;5.90;;;4.88;;
39448;SDS011;25151;45.566;9.382;2024-01-07T10:29:38;5.72;;;4.88;;
39448;SDS011;25151;45.566;9.382;2024-01-07T10:32:06;7.10;;;5.00;;
39448;SDS011;25151;45.566;9.382;2024-01-07T10:34:34;6.65;;;4.35;;
39448;SDS011;25151;45.566;9.382;2024-01-07T10:37:02;5.70;;;4.25;;
39448;SDS011;25151;45.566;9.382;2024-01-07T10:39:30;6.25;;;4.43;;
39448;SDS011;25151;45.566;9.382;2024-01-07T10:41:57;7.63;;;5.03;;
39448;SDS011;25151;45.566;9.382;2024-01-07T10:44:31;5.38;;;4.40;;
39448;SDS011;25151;45.566;9.382;2024-01-07T10:46:59;5.60;;;4.53;;
39448;SDS011;25151;45.566;9.382;2024-01-07T10:49:26;5.88;;;4.32;;
39448;SDS011;25151;45.566;9.382;2024-01-07T10:54:24;5.80;;;4.45;;
39448;SDS011;25151;45.566;9.382;2024-01-07T10:56:54;5.80;;;4.45;;
39448;SDS011;25151;45.566;9.382;2024-01-07T10:59:27;4.68;;;4.00;;
39448;SDS011;25151;45.566;9.382;2024-01-07T11:01:58;4.65;;;4.15;;
39448;SDS011;25151;45.566;9.382;2024-01-07T11:12:43;5.78;;;4.32;;
39448;SDS011;25151;45.566;9.382;2024-01-07T11:15:50;6.47;;;4.13;;
39448;SDS011;25151;45.566;9.382;2024-01-07T11:18:17;5.00;;;4.13;;
39448;SDS011;25151;45.566;9.382;2024-01-07T11:20:46;5.95;;;3.85;;
39448;SDS011;25151;45.566;9.382;2024-01-07T11:26:02;7.95;;;4.53;;
39448;SDS011;25151;45.566;9.382;2024-01-07T11:28:45;4.78;;;3.85;;
39448;SDS011;25151;45.566;9.382;2024-01-07T11:31:13;6.13;;;4.13;;
39448;SDS011;25151;45.566;9.382;2024-01-07T11:33:58;11.02;;;4.50;;
39448;SDS011;25151;45.566;9.382;2024-01-07T11:36:25;5.15;;;4.32;;
39448;SDS011;25151;45.566;9.382;2024-01-07T11:38:56;5.22;;;4.05;;
39448;SDS011;25151;45.566;9.382;2024-01-07T11:41:22;4.97;;;4.25;;
39448;SDS011;25151;45.566;9.382;2024-01-07T11:43:52;6.03;;;4.43;;
39448;SDS011;25151;45.566;9.382;2024-01-07T11:46:21;5.10;;;3.55;;
39448;SDS011;25151;45.566;9.382;2024-01-07T11:48:48;7.03;;;4.18;;
39448;SDS011;25151;45.566;9.382;2024-01-07T11:51:16;4.80;;;3.58;;
39448;SDS011;25151;45.566;9.382;2024-01-07T11:53:47;5.57;;;3.85;;
39448;SDS011;25151;45.566;9.382;2024-01-07T11:56:15;5.18;;;3.70;;
39448;SDS011;25151;45.566;9.382;2024-01-07T11:58:42;3.97;;;3.58;;
39448;SDS011;25151;45.566;9.382;2024-01-07T12:01:10;5.45;;;3.90;;
39448;SDS011;25151;45.566;9.382;2024-01-07T12:03:40;8.40;;;4.32;;
39448;SDS011;25151;45.566;9.382;2024-01-07T12:06:10;5.65;;;3.60;;
39448;SDS011;25151;45.566;9.382;2024-01-07T12:08:40;5.93;;;3.97;;
39448;SDS011;25151;45.566;9.382;2024-01-07T12:11:08;5.00;;;4.20;;
39448;SDS011;25151;45.566;9.382;2024-01-07T12:13:41;6.43;;;3.97;;
39448;SDS011;25151;45.566;9.382;2024-01-07T12:16:08;6.00;;;4.10;;
39448;SDS011;25151;45.566;9.382;2024-01-07T12:18:38;5.38;;;3.83;;
39448;SDS011;25151;45.566;9.382;2024-01-07T12:21:05;6.05;;;4.13;;
39448;SDS011;25151;45.566;9.382;2024-01-07T12:23:35;10.27;;;3.83;;
39448;SDS011;25151;45.566;9.382;2024-01-07T12:26:08;4.13;;;3.65;;
39448;SDS011;25151;45.566;9.382;2024-01-07T12:28:38;4.95;;;3.70;;
39448;SDS011;25151;45.566;9.382;2024-01-07T12:31:05;4.72;;;3.60;;
39448;SDS011;25151;45.566;9.382;2024-01-07T12:33:38;5.35;;;3.67;;
39448;SDS011;25151;45.566;9.382;2024-01-07T12:36:07;4.53;;;3.78;;
39448;SDS011;25151;45.566;9.382;2024-01-07T12:38:37;5.15;;;3.70;;
39448;SDS011;25151;45.566;9.382;2024-01-07T12:41:16;4.63;;;3.85;;
39448;SDS011;25151;45.566;9.382;2024-01-07T12:43:44;4.30;;;3.45;;
39448;SDS011;25151;45.566;9.382;2024-01-07T12:46:12;4.05;;;3.50;;
39448;SDS011;25151;45.566;9.382;2024-01-07T12:48:40;5.53;;;3.70;;
39448;SDS011;25151;45.566;9.382;2024-01-07T12:51:07;4.80;;;3.72;;
39448;SDS011;25151;45.566;9.382;2024-01-07T12:53:34;4.75;;;3.60;;
39448;SDS011;25151;45.566;9.382;2024-01-07T12:56:01;6.28;;;3.42;;
39448;SDS011;25151;45.566;9.382;2024-01-07T12:58:28;5.35;;;3.53;;
39448;SDS011;25151;45.566;9.382;2024-01-07T13:00:55;4.60;;;3.28;;
39448;SDS011;25151;45.566;9.382;2024-01-07T13:03:23;4.45;;;3.35;;
39448;SDS011;25151;45.566;9.382;2024-01-07T13:05:50;4.97;;;3.65;;
39448;SDS011;25151;45.566;9.382;2024-01-07T13:08:18;5.82;;;3.50;;
39448;SDS011;25151;45.566;9.382;2024-01-07T13:10:47;5.57;;;4.13;;
39448;SDS011;25151;45.566;9.382;2024-01-07T13:13:19;4.03;;;3.35;;
39448;SDS011;25151;45.566;9.382;2024-01-07T13:15:46;7.03;;;3.47;;
39448;SDS011;25151;45.566;9.382;2024-01-07T13:18:16;5.32;;;3.88;;
39448;SDS011;25151;45.566;9.382;2024-01-07T13:20:43;4.50;;;3.33;;
39448;SDS011;25151;45.566;9.382;2024-01-07T13:23:10;4.93;;;3.22;;
39448;SDS011;25151;45.566;9.382;2024-01-07T13:25:37;4.28;;;3.40;;
39448;SDS011;25151;45.566;9.382;2024-01-07T13:28:04;4.43;;;3.22;;
39448;SDS011;25151;45.566;9.382;2024-01-07T13:30:35;7.75;;;3.42;;
39448;SDS011;25151;45.566;9.382;2024-01-07T13:33:03;3.80;;;3.20;;
39448;SDS011;25151;45.566;9.382;2024-01-07T13:35:31;4.65;;;3.47;;
39448;SDS011;25151;45.566;9.382;2024-01-07T13:38:01;4.78;;;3.53;;
39448;SDS011;25151;45.566;9.382;2024-01-07T13:40:27;6.20;;;3.22;;
39448;SDS011;25151;45.566;9.382;2024-01-07T13:42:55;4.82;;;3.60;;
39448;SDS011;25151;45.566;9.382;2024-01-07T13:45:25;4.17;;;3.70;;
39448;SDS011;25151;45.566;9.382;2024-01-07T13:48:03;5.13;;;3.55;;
39448;SDS011;25151;45.566;9.382;2024-01-07T13:50:35;6.25;;;3.35;;
39448;SDS011;25151;45.566;9.382;2024-01-07T13:53:05;4.47;;;3.53;;
39448;SDS011;25151;45.566;9.382;2024-01-07T13:55:32;5.43;;;3.22;;
39448;SDS011;25151;45.566;9.382;2024-01-07T13:57:59;4.50;;;3.58;;
39448;SDS011;25151;45.566;9.382;2024-01-07T14:00:28;3.70;;;3.22;;
39448;SDS011;25151;45.566;9.382;2024-01-07T14:02:56;4.70;;;3.20;;
39448;SDS011;25151;45.566;9.382;2024-01-07T14:05:24;4.65;;;3.42;;
39448;SDS011;25151;45.566;9.382;2024-01-07T14:07:54;3.92;;;3.00;;
39448;SDS011;25151;45.566;9.382;2024-01-07T14:10:21;4.45;;;3.28;;
39448;SDS011;25151;45.566;9.382;2024-01-07T14:12:48;4.13;;;3.35;;
39448;SDS011;25151;45.566;9.382;2024-01-07T14:15:16;3.40;;;3.08;;
39448;SDS011;25151;45.566;9.382;2024-01-07T14:17:44;5.22;;;3.55;;
39448;SDS011;25151;45.566;9.382;2024-01-07T14:20:11;3.45;;;3.00;;
39448;SDS011;25151;45.566;9.382;2024-01-07T14:22:39;3.70;;;3.10;;
39448;SDS011;25151;45.566;9.382;2024-01-07T14:25:08;4.25;;;3.40;;
39448;SDS011;25151;45.566;9.382;2024-01-07T14:27:35;4.53;;;3.45;;
39448;SDS011;25151;45.566;9.382;2024-01-07T14:30:02;3.50;;;2.85;;
39448;SDS011;25151;45.566;9.382;2024-01-07T14:32:30;4.50;;;3.30;;
39448;SDS011;25151;45.566;9.382;2024-01-07T14:34:58;3.85;;;3.45;;
39448;SDS011;25151;45.566;9.382;2024-01-07T14:37:25;3.88;;;3.38;;
39448;SDS011;25151;45.566;9.382;2024-01-07T14:39:53;4.63;;;3.42;;
39448;SDS011;25151;45.566;9.382;2024-01-07T14:42:21;3.83;;;3.17;;
39448;SDS011;25151;45.566;9.382;2024-01-07T14:44:49;3.28;;;2.97;;
39448;SDS011;25151;45.566;9.382;2024-01-07T14:47:17;3.92;;;3.40;;
39448;SDS011;25151;45.566;9.382;2024-01-07T14:49:45;4.68;;;3.28;;
39448;SDS011;25151;45.566;9.382;2024-01-07T14:52:23;3.90;;;3.28;;
39448;SDS011;25151;45.566;9.382;2024-01-07T14:54:55;3.45;;;3.15;;
39448;SDS011;25151;45.566;9.382;2024-01-07T14:57:26;3.80;;;3.13;;
39448;SDS011;25151;45.566;9.382;2024-01-07T14:59:55;5.20;;;3.42;;
39448;SDS011;25151;45.566;9.382;2024-01-07T15:02:23;3.40;;;3.03;;
39448;SDS011;25151;45.566;9.382;2024-01-07T15:04:51;6.88;;;4.00;;